Time;durP1;ratioP1;P1;durP2;ratioP2;P2;SDS_P1;SDS_P2;PMS_P1;PMS_P2;Temp;Humidity;BMP_temperature;BMP_pressure;BME280_temperature;BME280_humidity;BME280_pressure;Samples;Min_cycle;Max_cycle;Signal;HPM_P1;HPM_P2
2023/12/01 00:01:20;;;;;;;18.33;11.70;;;-2.60;99.90;;;;;;5013774;28;20812;-81
2023/12/01 00:03:48;;;;;;;29.30;13.77;;;-2.70;99.90;;;;;;5041097;28;20725;-81
2023/12/01 00:06:16;;;;;;;44.13;14.10;;;-2.60;99.90;;;;;;5020629;28;20768;-81
2023/12/01 00:08:43;;;;;;;20.87;13.63;;;-2.70;99.90;;;;;;5025175;28;20227;-81
2023/12/01 00:11:10;;;;;;;17.87;11.43;;;-2.70;99.90;;;;;;5029446;28;20350;-81
2023/12/01 00:13:37;;;;;;;21.63;11.90;;;-2.70;99.90;;;;;;5040722;28;20223;-81
2023/12/01 00:16:05;;;;;;;26.03;12.23;;;-2.70;99.90;;;;;;5023177;28;20235;-81
2023/12/01 00:18:31;;;;;;;16.10;11.10;;;-2.80;99.90;;;;;;5024068;28;20411;-81
2023/12/01 00:20:58;;;;;;;17.17;11.63;;;-2.80;99.90;;;;;;5046915;28;20239;-81
2023/12/01 00:23:29;;;;;;;18.10;12.73;;;-2.80;99.90;;;;;;5016615;28;21002;-81
2023/12/01 00:25:55;;;;;;;17.83;12.23;;;-2.80;99.90;;;;;;5043799;28;20309;-81
2023/12/01 00:28:24;;;;;;;16.50;10.87;;;-2.80;99.90;;;;;;5045019;28;20230;-82
2023/12/01 00:30:51;;;;;;;16.37;11.47;;;-2.80;99.90;;;;;;5025377;28;20446;-81
2023/12/01 00:33:17;;;;;;;18.10;11.43;;;-2.80;99.90;;;;;;5026242;28;20269;-81
2023/12/01 00:35:44;;;;;;;16.80;11.30;;;-2.80;99.90;;;;;;5025700;28;20275;-81
2023/12/01 00:38:11;;;;;;;16.40;11.67;;;-2.80;99.90;;;;;;5042197;28;20239;-82
2023/12/01 00:40:39;;;;;;;15.37;11.10;;;-2.80;99.90;;;;;;5041446;28;20306;-81
2023/12/01 00:43:06;;;;;;;18.13;12.13;;;-2.80;99.90;;;;;;5042965;28;20283;-82
2023/12/01 00:45:32;;;;;;;19.47;11.93;;;-2.80;99.90;;;;;;5047267;28;20345;-81
2023/12/01 00:47:59;;;;;;;18.73;13.40;;;-2.80;99.90;;;;;;5051723;28;20232;-82
2023/12/01 00:50:26;;;;;;;45.00;13.10;;;-2.80;99.90;;;;;;5029237;28;20265;-81
2023/12/01 00:52:53;;;;;;;17.53;12.00;;;-2.80;99.90;;;;;;5032320;28;20291;-81
2023/12/01 00:55:20;;;;;;;24.43;12.30;;;-2.70;99.90;;;;;;5046228;28;20227;-82
2023/12/01 00:57:53;;;;;;;16.00;11.43;;;-2.70;99.90;;;;;;5044000;28;20865;-82
2023/12/01 01:00:22;;;;;;;14.53;11.23;;;-2.60;99.90;;;;;;5026850;28;20262;-82
2023/12/01 01:02:50;;;;;;;17.37;11.60;;;-2.70;99.90;;;;;;5046071;28;20793;-82
2023/12/01 01:05:17;;;;;;;16.00;11.20;;;-2.70;99.90;;;;;;5027417;28;20254;-82
2023/12/01 01:07:45;;;;;;;16.53;11.23;;;-2.70;99.90;;;;;;5044109;28;20225;-82
2023/12/01 01:10:12;;;;;;;14.77;10.67;;;-2.70;99.90;;;;;;5034067;28;20252;-81
2023/12/01 01:12:40;;;;;;;14.93;10.87;;;-2.80;99.90;;;;;;5049219;28;20238;-81
2023/12/01 01:15:11;;;;;;;15.87;10.60;;;-2.80;99.90;;;;;;5043932;28;20231;-81
2023/12/01 01:17:38;;;;;;;16.87;10.73;;;-2.90;99.90;;;;;;5044254;28;20591;-81
2023/12/01 01:20:10;;;;;;;14.93;10.10;;;-2.90;99.90;;;;;;5028537;28;20219;-81
2023/12/01 01:22:37;;;;;;;15.67;10.83;;;-3.00;99.90;;;;;;5030157;28;20267;-81
2023/12/01 01:25:05;;;;;;;18.23;10.60;;;-3.10;99.90;;;;;;5048725;28;20215;-81
2023/12/01 01:27:32;;;;;;;53.87;12.40;;;-3.10;99.90;;;;;;5010839;28;20647;-82
2023/12/01 01:29:59;;;;;;;15.00;10.57;;;-3.20;99.90;;;;;;5027463;28;20284;-81
2023/12/01 01:32:28;;;;;;;17.10;11.93;;;-3.30;99.90;;;;;;5034556;28;20250;-81
2023/12/01 01:34:55;;;;;;;36.40;11.40;;;-3.30;99.90;;;;;;5037811;28;20218;-81
2023/12/01 01:37:22;;;;;;;16.40;11.10;;;-3.40;99.90;;;;;;5044327;28;20223;-81
2023/12/01 01:39:49;;;;;;;17.67;11.00;;;-3.40;99.90;;;;;;5043969;28;20223;-81
2023/12/01 01:42:15;;;;;;;14.73;10.00;;;-3.40;99.90;;;;;;5030740;28;20893;-81
2023/12/01 01:44:43;;;;;;;17.63;10.03;;;-3.50;99.90;;;;;;5044065;28;20300;-82
2023/12/01 01:47:10;;;;;;;16.73;10.80;;;-3.60;99.90;;;;;;5041430;28;20247;-81
2023/12/01 01:49:38;;;;;;;21.73;10.53;;;-3.70;99.90;;;;;;5019345;28;20229;-81
2023/12/01 01:52:06;;;;;;;16.37;10.83;;;-3.80;99.90;;;;;;5041877;28;20238;-81
2023/12/01 01:54:33;;;;;;;16.17;10.57;;;-3.80;99.90;;;;;;5031734;28;20222;-81
2023/12/01 01:57:01;;;;;;;16.27;10.17;;;-3.90;99.90;;;;;;5029896;28;20894;-81
2023/12/01 01:59:28;;;;;;;16.10;11.00;;;-4.00;99.90;;;;;;5048839;28;20239;-81
2023/12/01 02:01:55;;;;;;;17.80;11.47;;;-4.10;99.90;;;;;;5031190;28;20282;-81
2023/12/01 02:04:21;;;;;;;16.73;11.93;;;-4.20;99.90;;;;;;5026344;28;20219;-81
2023/12/01 02:06:50;;;;;;;16.47;10.87;;;-4.30;99.90;;;;;;5047086;28;20221;-81
2023/12/01 02:09:17;;;;;;;18.50;11.60;;;-4.30;99.90;;;;;;5028630;28;20230;-81
2023/12/01 02:11:44;;;;;;;17.50;11.17;;;-4.40;99.90;;;;;;5045531;28;20914;-81
2023/12/01 02:14:11;;;;;;;18.17;11.27;;;-4.50;99.90;;;;;;5027754;28;20233;-82
2023/12/01 02:16:45;;;;;;;20.73;11.30;;;-4.60;99.90;;;;;;5044645;28;20226;-81
2023/12/01 02:19:12;;;;;;;19.93;11.00;;;-4.60;99.90;;;;;;5027204;28;20218;-81
2023/12/01 02:21:44;;;;;;;18.00;11.40;;;-4.70;99.90;;;;;;5045079;28;20904;-81
2023/12/01 02:24:11;;;;;;;18.10;11.80;;;-4.80;99.90;;;;;;5026203;28;20234;-81
2023/12/01 02:26:38;;;;;;;18.60;11.60;;;-4.80;99.90;;;;;;5028728;28;20948;-81
2023/12/01 02:29:05;;;;;;;19.80;12.30;;;-4.90;99.90;;;;;;5031277;28;20294;-81
2023/12/01 02:31:32;;;;;;;19.03;12.60;;;-4.90;99.90;;;;;;5044677;28;20689;-81
2023/12/01 02:33:59;;;;;;;20.77;13.30;;;-5.00;99.90;;;;;;5044140;28;20961;-81
2023/12/01 02:36:26;;;;;;;18.83;12.10;;;-5.00;99.90;;;;;;5046295;28;20851;-80
2023/12/01 02:38:55;;;;;;;21.40;14.00;;;-5.00;99.90;;;;;;5031550;28;20360;-80
2023/12/01 02:41:22;;;;;;;21.40;13.47;;;-5.00;99.90;;;;;;5046298;28;20222;-80
2023/12/01 02:43:49;;;;;;;20.23;12.50;;;-5.00;99.90;;;;;;5033791;28;20613;-81
2023/12/01 02:46:22;;;;;;;22.43;13.27;;;-4.90;99.90;;;;;;5043626;28;20260;-80
2023/12/01 02:48:49;;;;;;;22.40;13.77;;;-4.90;99.90;;;;;;5031899;28;20592;-81
2023/12/01 02:51:16;;;;;;;21.50;13.87;;;-4.80;99.90;;;;;;5029445;28;20908;-81
2023/12/01 02:53:43;;;;;;;22.87;14.20;;;-4.80;99.90;;;;;;5027607;28;20235;-80
2023/12/01 02:56:12;;;;;;;23.60;14.53;;;-4.70;99.90;;;;;;5029040;28;20221;-80
2023/12/01 02:58:39;;;;;;;21.53;13.87;;;-4.60;99.90;;;;;;5033226;28;20240;-80
2023/12/01 03:01:06;;;;;;;24.37;15.73;;;-4.50;99.90;;;;;;5029092;28;20228;-81
2023/12/01 03:03:33;;;;;;;22.13;13.97;;;-4.50;99.90;;;;;;5043397;28;20697;-80
2023/12/01 03:06:00;;;;;;;21.80;13.23;;;-4.40;99.90;;;;;;5026537;28;20806;-80
2023/12/01 03:08:26;;;;;;;21.33;13.17;;;-4.30;99.90;;;;;;5039606;28;20348;-80
2023/12/01 03:10:54;;;;;;;22.17;13.20;;;-4.20;99.90;;;;;;5042385;28;20288;-80
2023/12/01 03:13:23;;;;;;;21.77;14.00;;;-4.20;99.90;;;;;;5022330;28;20234;-80
2023/12/01 03:15:51;;;;;;;24.17;13.50;;;-4.10;99.90;;;;;;5024458;28;20313;-80
2023/12/01 03:18:19;;;;;;;21.83;13.73;;;-4.00;99.90;;;;;;5023808;28;20237;-81
2023/12/01 03:20:46;;;;;;;21.83;14.17;;;-3.90;99.90;;;;;;5025964;28;20227;-81
2023/12/01 03:23:13;;;;;;;21.30;13.43;;;-3.90;99.90;;;;;;5044112;28;20447;-81
2023/12/01 03:25:40;;;;;;;19.97;13.13;;;-3.90;99.90;;;;;;5026918;28;20223;-81
2023/12/01 03:28:08;;;;;;;21.10;13.53;;;-3.80;99.90;;;;;;5025665;28;20227;-81
2023/12/01 03:30:37;;;;;;;21.23;13.13;;;-3.80;99.90;;;;;;5046971;28;20216;-81
2023/12/01 03:33:04;;;;;;;57.87;15.27;;;-3.70;99.90;;;;;;5027111;28;20316;-81
2023/12/01 03:35:31;;;;;;;21.30;13.73;;;-3.70;99.90;;;;;;5046082;28;20595;-80
2023/12/01 03:37:58;;;;;;;21.57;12.73;;;-3.60;99.90;;;;;;5036513;28;20280;-80
2023/12/01 03:40:27;;;;;;;19.13;13.23;;;-3.50;99.90;;;;;;5040719;28;20221;-80
2023/12/01 03:42:54;;;;;;;22.23;14.10;;;-3.50;99.90;;;;;;5049279;28;20615;-82
2023/12/01 03:45:21;;;;;;;36.10;14.37;;;-3.40;99.90;;;;;;5045958;28;20314;-80
2023/12/01 03:47:51;;;;;;;30.23;12.23;;;-3.40;99.90;;;;;;5040374;28;20320;-81
2023/12/01 03:50:19;;;;;;;19.70;13.10;;;-3.40;99.90;;;;;;5045483;28;20336;-81
2023/12/01 03:52:48;;;;;;;18.37;12.80;;;-3.30;99.90;;;;;;5047011;28;20233;-82
2023/12/01 03:55:15;;;;;;;23.07;14.43;;;-3.30;99.90;;;;;;5027262;28;20233;-82
2023/12/01 03:57:44;;;;;;;24.30;13.97;;;-3.30;99.90;;;;;;5029043;28;20302;-81
2023/12/01 04:00:14;;;;;;;27.53;16.70;;;-3.30;99.90;;;;;;5029516;28;20250;-81
2023/12/01 04:02:42;;;;;;;22.13;13.73;;;-3.30;99.90;;;;;;5049412;28;20225;-80
2023/12/01 04:05:17;;;;;;;30.17;18.33;;;-3.30;99.90;;;;;;5043603;28;20258;-80
2023/12/01 04:07:45;;;;;;;150.67;63.30;;;-3.30;99.90;;;;;;5028474;28;20646;-80
2023/12/01 04:10:12;;;;;;;28.20;16.00;;;-3.30;99.90;;;;;;5047803;28;20272;-81
2023/12/01 04:12:44;;;;;;;26.40;15.73;;;-3.30;99.90;;;;;;5031027;28;20982;-81
2023/12/01 04:15:14;;;;;;;23.13;14.57;;;-3.30;99.90;;;;;;5047517;28;20319;-80
2023/12/01 04:17:43;;;;;;;21.33;13.63;;;-3.30;99.90;;;;;;5032065;28;20216;-81
2023/12/01 04:20:25;;;;;;;20.80;13.50;;;-3.20;99.90;;;;;;5029594;28;20220;-82
2023/12/01 04:22:53;;;;;;;40.37;16.13;;;-3.20;99.90;;;;;;5026961;28;20726;-81
2023/12/01 04:25:21;;;;;;;126.13;19.13;;;-3.10;99.90;;;;;;5047359;28;20225;-80
2023/12/01 04:27:48;;;;;;;26.00;15.40;;;-3.10;99.90;;;;;;5039916;28;20216;-81
2023/12/01 04:30:16;;;;;;;23.30;14.63;;;-3.10;99.90;;;;;;5040109;28;20390;-80
2023/12/01 04:32:43;;;;;;;29.07;15.90;;;-3.00;99.90;;;;;;5043958;28;20242;-81
2023/12/01 04:35:13;;;;;;;28.23;17.07;;;-3.00;99.90;;;;;;5022872;28;20289;-81
2023/12/01 04:37:41;;;;;;;204.07;26.43;;;-3.00;99.90;;;;;;5029758;28;20235;-81
2023/12/01 04:40:14;;;;;;;26.27;18.27;;;-3.00;99.90;;;;;;5037152;28;20229;-81
2023/12/01 04:42:45;;;;;;;30.33;16.37;;;-2.90;99.90;;;;;;5043978;28;20258;-82
2023/12/01 04:45:12;;;;;;;26.53;16.83;;;-3.00;99.90;;;;;;5025291;28;20351;-81
2023/12/01 04:47:41;;;;;;;29.60;16.57;;;-2.90;99.90;;;;;;5044611;28;20231;-81
2023/12/01 04:50:12;;;;;;;26.73;16.40;;;-2.90;99.90;;;;;;5040950;28;20215;-81
2023/12/01 04:52:42;;;;;;;27.57;16.60;;;-2.90;99.90;;;;;;5050937;28;20470;-81
2023/12/01 04:55:12;;;;;;;23.13;15.07;;;-2.90;99.90;;;;;;5021221;28;20405;-82
2023/12/01 04:57:39;;;;;;;44.30;26.23;;;-2.90;99.90;;;;;;5046499;28;20228;-82
2023/12/01 05:00:18;;;;;;;29.03;17.67;;;-2.80;99.90;;;;;;5046691;28;20215;-82
2023/12/01 05:02:48;;;;;;;24.23;15.47;;;-2.90;99.90;;;;;;5045560;28;20218;-80
2023/12/01 05:05:16;;;;;;;65.50;16.83;;;-2.90;99.90;;;;;;5023515;28;20859;-80
2023/12/01 05:07:49;;;;;;;25.43;15.93;;;-2.80;99.90;;;;;;5024617;28;20244;-80
2023/12/01 05:10:17;;;;;;;52.27;17.07;;;-2.90;99.90;;;;;;5037914;28;20231;-82
2023/12/01 05:12:45;;;;;;;24.70;15.63;;;-2.80;99.90;;;;;;5028358;28;20221;-82
2023/12/01 05:15:16;;;;;;;57.17;18.10;;;-2.80;99.90;;;;;;5029309;28;20230;-81
2023/12/01 05:17:47;;;;;;;56.07;16.97;;;-2.80;99.90;;;;;;5045385;28;20767;-80
2023/12/01 05:20:18;;;;;;;23.40;15.30;;;-2.80;99.90;;;;;;5020035;28;20225;-81
2023/12/01 05:22:48;;;;;;;25.00;14.83;;;-2.80;99.90;;;;;;5045921;28;20712;-80
2023/12/01 05:25:16;;;;;;;89.47;18.30;;;-2.80;99.90;;;;;;5040066;28;20758;-81
2023/12/01 05:27:45;;;;;;;24.73;14.23;;;-2.80;99.90;;;;;;5006289;28;20318;-81
2023/12/01 05:30:12;;;;;;;26.30;14.87;;;-2.70;99.90;;;;;;5047717;28;20232;-81
2023/12/01 05:32:40;;;;;;;34.37;15.23;;;-2.80;99.90;;;;;;5048810;28;20307;-81
2023/12/01 05:35:10;;;;;;;22.40;14.13;;;-2.70;99.90;;;;;;5031968;28;20220;-81
2023/12/01 05:37:38;;;;;;;32.10;14.20;;;-2.70;99.90;;;;;;5048872;28;20212;-81
2023/12/01 05:40:09;;;;;;;23.03;15.33;;;-2.70;99.90;;;;;;5050329;28;20345;-81
2023/12/01 05:42:36;;;;;;;29.83;14.63;;;-2.70;99.90;;;;;;5032984;28;20758;-82
2023/12/01 05:45:05;;;;;;;25.77;14.67;;;-2.70;99.90;;;;;;5049069;28;20220;-80
2023/12/01 05:47:32;;;;;;;28.93;17.60;;;-2.70;99.90;;;;;;5025832;28;20425;-80
2023/12/01 05:49:59;;;;;;;25.83;14.87;;;-2.70;99.90;;;;;;5050037;28;20229;-80
2023/12/01 05:52:25;;;;;;;28.80;15.93;;;-2.70;99.90;;;;;;5032421;28;20227;-81
2023/12/01 05:54:52;;;;;;;94.13;17.57;;;-2.70;99.90;;;;;;5041481;28;20581;-79
2023/12/01 05:57:21;;;;;;;25.10;14.70;;;-2.70;99.90;;;;;;5029023;28;20236;-79
2023/12/01 05:59:48;;;;;;;36.87;15.87;;;-2.70;99.90;;;;;;5044467;28;20227;-82
2023/12/01 06:02:15;;;;;;;40.63;20.53;;;-2.70;99.90;;;;;;5027301;28;20238;-81
2023/12/01 06:04:42;;;;;;;65.17;26.47;;;-2.70;99.90;;;;;;5042141;28;20258;-80
2023/12/01 06:07:09;;;;;;;31.50;19.83;;;-2.70;99.90;;;;;;5030843;28;20312;-81
2023/12/01 06:09:36;;;;;;;30.20;17.53;;;-2.70;99.90;;;;;;5040937;28;20227;-80
2023/12/01 06:12:04;;;;;;;40.00;18.10;;;-2.60;99.90;;;;;;5029664;28;20233;-80
2023/12/01 06:14:32;;;;;;;91.70;20.27;;;-2.60;99.90;;;;;;5041092;28;20226;-80
2023/12/01 06:17:00;;;;;;;29.87;17.67;;;-2.50;99.90;;;;;;5017903;28;20591;-80
2023/12/01 06:19:28;;;;;;;29.43;17.37;;;-2.60;99.90;;;;;;5045819;28;20664;-80
2023/12/01 06:21:57;;;;;;;31.50;17.13;;;-2.60;99.90;;;;;;5044134;28;20325;-80
2023/12/01 06:24:25;;;;;;;29.60;17.20;;;-2.50;99.90;;;;;;5027249;28;20224;-80
2023/12/01 06:26:53;;;;;;;32.93;17.43;;;-2.50;99.90;;;;;;5027460;28;20437;-80
2023/12/01 06:29:21;;;;;;;30.30;17.70;;;-2.50;99.90;;;;;;5035965;28;20713;-79
2023/12/01 06:31:49;;;;;;;29.23;17.77;;;-2.50;99.90;;;;;;5031673;28;20271;-81
2023/12/01 06:34:16;;;;;;;30.83;19.47;;;-2.50;99.90;;;;;;5023339;28;20217;-81
2023/12/01 06:36:43;;;;;;;30.50;18.83;;;-2.50;99.90;;;;;;5025949;28;20242;-80
2023/12/01 06:39:12;;;;;;;31.03;18.40;;;-2.50;99.90;;;;;;5041532;28;20221;-80
2023/12/01 06:41:41;;;;;;;28.77;17.57;;;-2.50;99.90;;;;;;5040840;28;20666;-80
2023/12/01 06:44:08;;;;;;;31.10;16.83;;;-2.40;99.90;;;;;;5041668;28;20275;-81
2023/12/01 06:46:35;;;;;;;29.00;18.77;;;-2.50;99.90;;;;;;5042446;28;20224;-80
2023/12/01 06:49:03;;;;;;;31.87;17.43;;;-2.50;99.90;;;;;;5039725;28;20223;-80
2023/12/01 06:51:30;;;;;;;27.83;17.17;;;-2.40;99.90;;;;;;5037709;28;20950;-81
2023/12/01 06:53:58;;;;;;;29.87;18.27;;;-2.50;99.90;;;;;;5041079;28;20635;-80
2023/12/01 06:56:25;;;;;;;31.10;18.07;;;-2.50;99.90;;;;;;5024191;28;20233;-81
2023/12/01 06:58:52;;;;;;;77.63;20.33;;;-2.50;99.90;;;;;;5026083;28;20219;-80
2023/12/01 07:01:20;;;;;;;46.37;19.43;;;-2.50;99.90;;;;;;5010346;28;20454;-81
2023/12/01 07:03:46;;;;;;;40.73;17.90;;;-2.50;99.90;;;;;;5031908;28;20231;-80
2023/12/01 07:06:15;;;;;;;31.60;17.77;;;-2.50;99.90;;;;;;5026275;28;20719;-80
2023/12/01 07:08:42;;;;;;;36.57;19.90;;;-2.60;99.90;;;;;;5030059;28;20223;-81
2023/12/01 07:11:09;;;;;;;34.07;20.03;;;-2.60;99.90;;;;;;5043443;28;20223;-80
2023/12/01 07:13:36;;;;;;;41.80;20.10;;;-2.60;99.90;;;;;;5041194;28;20725;-81
2023/12/01 07:16:09;;;;;;;32.27;18.33;;;-2.70;99.90;;;;;;5026218;28;20238;-81
2023/12/01 07:18:38;;;;;;;32.30;18.17;;;-2.70;99.90;;;;;;5045874;28;20289;-80
2023/12/01 07:21:06;;;;;;;30.93;17.70;;;-2.70;99.90;;;;;;5035196;28;20733;-81
2023/12/01 07:23:36;;;;;;;33.00;18.33;;;-2.80;99.90;;;;;;5043192;28;20232;-81
2023/12/01 07:26:03;;;;;;;30.70;17.03;;;-2.80;99.90;;;;;;5027565;28;20702;-81
2023/12/01 07:28:53;;;;;;;50.30;18.23;;;-2.80;99.90;;;;;;5027025;28;20227;-81
2023/12/01 07:31:20;;;;;;;28.37;17.03;;;-2.90;99.90;;;;;;5025243;28;20309;-81
2023/12/01 07:33:47;;;;;;;28.33;16.97;;;-2.90;99.90;;;;;;5045122;28;20231;-81
2023/12/01 07:36:14;;;;;;;27.83;16.57;;;-2.90;99.90;;;;;;5038806;28;20229;-81
2023/12/01 07:38:42;;;;;;;30.00;17.17;;;-2.90;99.90;;;;;;5026379;28;20254;-81
2023/12/01 07:41:12;;;;;;;30.27;17.73;;;-2.90;99.90;;;;;;5043667;28;20261;-81
2023/12/01 07:43:40;;;;;;;29.77;17.63;;;-2.90;99.90;;;;;;5044708;28;20283;-81
2023/12/01 07:46:08;;;;;;;32.73;17.40;;;-2.90;99.90;;;;;;5043157;28;20215;-80
2023/12/01 07:48:35;;;;;;;29.97;18.43;;;-2.90;99.90;;;;;;5043527;28;20742;-80
2023/12/01 07:51:02;;;;;;;27.70;16.93;;;-2.80;99.90;;;;;;5030636;28;20670;-80
2023/12/01 07:53:29;;;;;;;27.07;17.37;;;-2.80;99.90;;;;;;5023571;28;20741;-81
2023/12/01 07:55:59;;;;;;;33.83;18.77;;;-2.70;99.90;;;;;;5031651;28;20536;-80
2023/12/01 07:58:26;;;;;;;35.87;17.67;;;-2.80;99.90;;;;;;5037851;28;20259;-81
2023/12/01 08:00:53;;;;;;;26.03;16.37;;;-2.80;99.90;;;;;;5022426;28;20220;-83
2023/12/01 08:03:20;;;;;;;31.17;17.60;;;-2.80;99.90;;;;;;5037561;28;20228;-84
2023/12/01 08:05:47;;;;;;;28.00;16.97;;;-2.70;99.90;;;;;;5041693;28;20738;-83
2023/12/01 08:08:14;;;;;;;37.27;17.30;;;-2.70;99.90;;;;;;5021022;28;20658;-84
2023/12/01 08:10:41;;;;;;;27.10;16.27;;;-2.70;99.90;;;;;;5032626;28;20242;-83
2023/12/01 08:13:10;;;;;;;33.00;16.43;;;-2.70;99.90;;;;;;5040925;28;20335;-84
2023/12/01 08:15:37;;;;;;;29.20;16.70;;;-2.60;99.90;;;;;;5048010;28;20239;-84
2023/12/01 08:18:04;;;;;;;29.60;16.57;;;-2.60;99.90;;;;;;5027147;28;20253;-84
2023/12/01 08:20:31;;;;;;;26.73;16.60;;;-2.50;99.90;;;;;;5044152;28;20235;-84
2023/12/01 08:22:58;;;;;;;30.57;16.73;;;-2.50;99.90;;;;;;5045360;28;20276;-83
2023/12/01 08:25:25;;;;;;;28.63;16.70;;;-2.50;99.90;;;;;;5030388;28;20219;-84
2023/12/01 08:27:53;;;;;;;29.37;16.90;;;-2.50;99.90;;;;;;5027885;28;20233;-84
2023/12/01 08:30:22;;;;;;;28.10;17.07;;;-2.40;99.90;;;;;;5015777;28;20224;-83
2023/12/01 08:32:49;;;;;;;30.33;18.47;;;-2.40;99.90;;;;;;5028716;28;20226;-84
2023/12/01 08:35:16;;;;;;;33.30;18.87;;;-2.40;99.90;;;;;;5024917;28;20278;-84
2023/12/01 08:37:43;;;;;;;32.00;17.60;;;-2.40;99.90;;;;;;5040957;28;20254;-84
2023/12/01 08:40:11;;;;;;;31.03;17.53;;;-2.30;99.90;;;;;;5044169;28;20318;-83
2023/12/01 08:42:40;;;;;;;30.80;18.50;;;-2.30;99.90;;;;;;5038429;28;20259;-81
2023/12/01 08:45:08;;;;;;;30.77;18.43;;;-2.30;99.90;;;;;;5027366;28;20238;-81
2023/12/01 08:47:36;;;;;;;29.70;18.03;;;-2.30;99.90;;;;;;5045879;28;20516;-81
2023/12/01 08:50:04;;;;;;;30.07;17.63;;;-2.30;99.90;;;;;;5031176;28;20299;-81
2023/12/01 08:52:31;;;;;;;32.27;18.30;;;-2.30;99.90;;;;;;5040025;28;20227;-81
2023/12/01 08:54:58;;;;;;;33.27;18.60;;;-2.30;99.90;;;;;;5042442;28;20222;-80
2023/12/01 08:57:25;;;;;;;30.17;18.97;;;-2.30;99.90;;;;;;5027432;28;20231;-81
2023/12/01 08:59:52;;;;;;;32.27;18.10;;;-2.30;99.90;;;;;;5039670;28;20222;-81
2023/12/01 09:02:19;;;;;;;31.17;18.13;;;-2.40;99.90;;;;;;5023540;28;20216;-81
2023/12/01 09:04:47;;;;;;;29.37;18.10;;;-2.40;99.90;;;;;;5041310;28;20270;-80
2023/12/01 09:07:13;;;;;;;29.17;18.30;;;-2.50;99.90;;;;;;5033743;28;20250;-80
2023/12/01 09:09:40;;;;;;;29.83;18.13;;;-2.50;99.90;;;;;;5029051;28;20307;-81
2023/12/01 09:12:07;;;;;;;30.53;17.50;;;-2.40;99.90;;;;;;5027747;28;20232;-80
2023/12/01 09:14:34;;;;;;;31.80;18.70;;;-2.40;99.90;;;;;;5045442;28;20322;-80
2023/12/01 09:17:01;;;;;;;31.80;18.63;;;-2.40;99.90;;;;;;5029888;28;20319;-80
2023/12/01 09:19:27;;;;;;;30.27;18.43;;;-2.40;99.90;;;;;;5045440;28;20760;-80
2023/12/01 09:21:56;;;;;;;33.13;18.73;;;-2.40;99.90;;;;;;5052125;28;20224;-81
2023/12/01 09:24:23;;;;;;;28.70;17.27;;;-2.40;99.90;;;;;;5027328;28;20220;-80
2023/12/01 09:26:50;;;;;;;31.07;17.27;;;-2.30;99.90;;;;;;5020028;28;20311;-81
2023/12/01 09:29:16;;;;;;;29.63;17.10;;;-2.30;99.90;;;;;;5038566;28;20226;-81
2023/12/01 09:31:44;;;;;;;32.17;18.37;;;-2.10;99.90;;;;;;5042274;28;20320;-81
2023/12/01 09:34:11;;;;;;;30.80;18.57;;;-2.10;99.90;;;;;;5047073;28;20227;-81
2023/12/01 09:36:39;;;;;;;25.73;16.13;;;-1.90;99.90;;;;;;5028959;28;20227;-82
2023/12/01 09:39:07;;;;;;;29.10;17.87;;;-1.80;99.90;;;;;;5041267;28;20786;-81
2023/12/01 09:41:36;;;;;;;27.07;16.73;;;-1.70;99.90;;;;;;5043244;28;20236;-80
2023/12/01 09:44:03;;;;;;;28.30;17.07;;;-1.60;99.90;;;;;;5025323;28;20229;-79
2023/12/01 09:46:34;;;;;;;29.10;17.47;;;-1.50;99.90;;;;;;5043104;28;20673;-80
2023/12/01 09:49:03;;;;;;;28.23;17.03;;;-1.40;99.90;;;;;;5043503;28;20266;-80
2023/12/01 09:51:31;;;;;;;28.33;17.33;;;-1.30;99.90;;;;;;5044009;28;20226;-81
2023/12/01 09:53:59;;;;;;;26.13;16.27;;;-1.20;99.90;;;;;;5046855;28;20238;-80
2023/12/01 09:56:27;;;;;;;26.97;16.73;;;-1.10;99.90;;;;;;5020166;28;20223;-80
2023/12/01 09:58:56;;;;;;;26.70;16.77;;;-1.10;99.90;;;;;;5027109;28;20228;-80
2023/12/01 10:01:23;;;;;;;28.53;17.17;;;-1.00;99.90;;;;;;5049182;28;20238;-80
2023/12/01 10:03:50;;;;;;;28.50;17.33;;;-0.90;99.90;;;;;;5026259;28;20314;-80
2023/12/01 10:06:18;;;;;;;28.37;17.40;;;-0.80;99.90;;;;;;5024423;28;20219;-80
2023/12/01 10:08:45;;;;;;;26.10;16.50;;;-0.70;99.90;;;;;;5043176;28;20225;-80
2023/12/01 10:11:21;;;;;;;27.87;17.40;;;-0.70;99.90;;;;;;5024842;28;20225;-79
2023/12/01 10:13:51;;;;;;;27.00;16.53;;;-0.60;99.90;;;;;;5024243;28;20251;-80
2023/12/01 10:16:18;;;;;;;25.87;16.60;;;-0.60;99.90;;;;;;5025947;28;20216;-80
2023/12/01 10:18:59;;;;;;;27.20;16.20;;;-0.50;99.90;;;;;;5025548;28;20221;-80
2023/12/01 10:21:43;;;;;;;25.03;16.73;;;-0.50;99.90;;;;;;5025409;28;20258;-80
2023/12/01 10:24:15;;;;;;;26.10;16.27;;;-0.40;99.90;;;;;;5023213;28;20233;-80
2023/12/01 10:26:43;;;;;;;22.37;15.23;;;-0.40;99.90;;;;;;5025718;28;20307;-80
2023/12/01 10:29:27;;;;;;;22.17;14.50;;;-0.40;99.90;;;;;;5036483;28;20795;-80
2023/12/01 10:31:54;;;;;;;24.20;15.53;;;-0.30;99.90;;;;;;5028024;28;20926;-80
2023/12/01 10:34:21;;;;;;;23.77;16.03;;;-0.30;99.90;;;;;;5051714;28;20221;-81
2023/12/01 10:36:48;;;;;;;21.53;14.50;;;-0.20;99.90;;;;;;5047828;28;20304;-81
2023/12/01 10:39:17;;;;;;;23.20;15.17;;;-0.20;99.90;;;;;;5024287;28;20245;-81
2023/12/01 10:41:45;;;;;;;21.83;14.47;;;-0.20;99.90;;;;;;5045696;28;20324;-80
2023/12/01 10:44:15;;;;;;;20.60;14.30;;;-0.20;99.90;;;;;;5040924;28;20216;-81
2023/12/01 10:46:45;;;;;;;21.73;14.83;;;-0.10;99.90;;;;;;5035777;28;20225;-81
2023/12/01 10:49:15;;;;;;;24.63;14.93;;;-0.10;99.90;;;;;;5045507;28;20313;-80
2023/12/01 10:51:43;;;;;;;22.47;14.63;;;-0.10;99.90;;;;;;5051214;28;20231;-81
2023/12/01 10:54:11;;;;;;;22.57;14.83;;;-0.10;99.90;;;;;;5043112;28;20282;-80
2023/12/01 10:56:45;;;;;;;23.60;14.40;;;0.00;99.90;;;;;;5041284;28;20228;-78
2023/12/01 10:59:18;;;;;;;21.23;13.63;;;0.00;99.90;;;;;;5043271;28;20336;-80
2023/12/01 11:01:49;;;;;;;22.70;13.43;;;0.00;99.90;;;;;;5018401;28;20550;-79
2023/12/01 11:04:22;;;;;;;19.43;13.13;;;0.00;99.90;;;;;;5021113;28;21103;-80
2023/12/01 11:07:03;;;;;;;19.47;12.57;;;0.10;99.90;;;;;;5040818;28;20630;-80
2023/12/01 11:09:39;;;;;;;20.63;14.67;;;0.10;99.90;;;;;;5022178;28;20227;-80
2023/12/01 11:12:14;;;;;;;20.33;12.23;;;0.10;99.90;;;;;;5038776;28;20316;-80
2023/12/01 11:14:42;;;;;;;19.57;12.83;;;0.20;99.90;;;;;;5029074;28;20895;-81
2023/12/01 11:17:10;;;;;;;20.97;13.90;;;0.20;99.90;;;;;;5028891;28;20310;-80
2023/12/01 11:19:39;;;;;;;18.27;12.67;;;0.30;99.90;;;;;;5027681;28;20225;-80
2023/12/01 11:22:25;;;;;;;16.93;11.53;;;0.30;99.90;;;;;;5037214;28;20259;-80
2023/12/01 11:24:52;;;;;;;13.73;9.23;;;0.30;99.90;;;;;;5014926;28;20224;-80
2023/12/01 11:27:19;;;;;;;14.67;10.10;;;0.40;99.90;;;;;;5021386;28;20299;-80
2023/12/01 11:30:06;;;;;;;14.27;9.80;;;0.40;99.90;;;;;;5042602;28;20749;-80
2023/12/01 11:32:39;;;;;;;15.63;10.50;;;0.50;99.90;;;;;;5038657;28;20230;-80
2023/12/01 11:35:09;;;;;;;14.77;10.20;;;0.50;99.90;;;;;;5025108;28;20224;-80
2023/12/01 11:38:03;;;;;;;13.03;9.20;;;0.60;99.90;;;;;;5015614;28;20226;-80
2023/12/01 11:40:39;;;;;;;14.37;9.57;;;0.60;99.90;;;;;;5040463;28;20244;-80
2023/12/01 11:43:08;;;;;;;12.47;8.83;;;0.70;99.90;;;;;;5028615;28;20770;-80
2023/12/01 11:45:41;;;;;;;11.90;7.77;;;0.80;99.90;;;;;;5029743;28;20312;-80
2023/12/01 11:48:09;;;;;;;11.17;7.80;;;0.80;99.90;;;;;;5024858;28;20780;-80
2023/12/01 11:50:40;;;;;;;10.90;7.23;;;0.80;99.90;;;;;;5043400;28;20312;-80
2023/12/01 11:53:13;;;;;;;9.67;6.73;;;0.90;99.90;;;;;;5039702;28;20222;-80
2023/12/01 11:55:40;;;;;;;10.13;6.67;;;0.90;99.90;;;;;;5029150;28;20213;-80
2023/12/01 11:58:06;;;;;;;11.23;7.40;;;0.90;99.90;;;;;;5047911;28;20390;-80
2023/12/01 12:00:34;;;;;;;10.07;7.73;;;0.90;99.90;;;;;;5044816;28;20343;-80
2023/12/01 12:03:20;;;;;;;12.60;7.70;;;0.90;99.90;;;;;;5042106;28;20314;-80
2023/12/01 12:05:47;;;;;;;12.27;8.57;;;1.00;99.90;;;;;;5045770;28;20604;-80
2023/12/01 12:08:16;;;;;;;12.83;9.10;;;1.00;99.90;;;;;;5030189;28;20221;-80
2023/12/01 12:10:44;;;;;;;13.37;9.53;;;1.10;99.90;;;;;;5041224;28;20271;-80
2023/12/01 12:13:12;;;;;;;9.90;7.50;;;1.10;99.90;;;;;;5042987;28;20302;-80
2023/12/01 12:15:38;;;;;;;12.80;7.10;;;1.20;99.90;;;;;;5027842;28;20580;-80
2023/12/01 12:18:05;;;;;;;10.67;7.37;;;1.20;99.90;;;;;;5021616;28;20307;-80
2023/12/01 12:20:33;;;;;;;10.40;7.80;;;1.30;99.90;;;;;;5044960;28;20311;-80
2023/12/01 12:23:00;;;;;;;11.07;7.00;;;1.40;99.90;;;;;;5043205;28;20251;-80
2023/12/01 12:25:35;;;;;;;10.57;7.27;;;1.40;99.90;;;;;;5024561;28;20770;-80
2023/12/01 12:28:09;;;;;;;11.33;7.90;;;1.50;99.90;;;;;;5041455;28;21799;-80
2023/12/01 12:30:37;;;;;;;11.27;7.97;;;1.50;99.90;;;;;;5022378;28;20307;-80
2023/12/01 12:33:05;;;;;;;10.57;7.27;;;1.50;99.90;;;;;;5030984;28;20430;-80
2023/12/01 12:35:33;;;;;;;11.37;8.20;;;1.50;99.90;;;;;;5039521;28;20652;-80